createdAt,value
2023-05-25T00:01:54.866Z,15.50
2023-05-25T00:04:27.355Z,15.50
2023-05-25T00:06:55.992Z,15.20
2023-05-25T00:09:25.807Z,15.40
2023-05-25T00:11:54.207Z,15.30
2023-05-25T00:14:22.707Z,15.30
2023-05-25T00:16:51.740Z,15.30
2023-05-25T00:19:20.153Z,15.20
2023-05-25T00:21:48.919Z,15.20
2023-05-25T00:24:17.244Z,15.10
2023-05-25T00:26:47.642Z,15.10
2023-05-25T00:29:16.228Z,15.10
2023-05-25T00:31:44.549Z,15.10
2023-05-25T00:34:12.891Z,15.00
2023-05-25T00:36:43.375Z,15.00
2023-05-25T00:39:11.707Z,15.00
2023-05-25T00:41:41.941Z,15.00
2023-05-25T00:44:11.763Z,14.90
2023-05-25T00:46:40.140Z,14.90
2023-05-25T00:49:08.766Z,14.80
2023-05-25T00:51:37.633Z,14.80
2023-05-25T00:54:06.334Z,14.70
2023-05-25T00:56:37.881Z,14.70
2023-05-25T00:59:07.874Z,14.70
2023-05-25T01:01:41.549Z,14.70
2023-05-25T01:04:11.046Z,14.70
2023-05-25T01:06:40.833Z,14.70
2023-05-25T01:09:10.284Z,14.70
2023-05-25T01:11:40.260Z,14.60
2023-05-25T01:14:09.527Z,14.60
2023-05-25T01:16:38.832Z,14.60
2023-05-25T01:19:08.527Z,14.60
2023-05-25T01:21:42.236Z,14.70
2023-05-25T01:24:14.129Z,14.70
2023-05-25T01:26:45.762Z,14.60
2023-05-25T01:29:14.655Z,14.70
2023-05-25T01:31:43.413Z,14.60
2023-05-25T01:34:12.395Z,14.60
2023-05-25T01:36:42.914Z,14.60
2023-05-25T01:39:12.876Z,14.60
2023-05-25T01:41:41.261Z,14.60
2023-05-25T01:44:09.730Z,14.60
2023-05-25T01:46:39.446Z,14.60
2023-05-25T01:49:16.838Z,14.60
2023-05-25T01:51:55.848Z,14.60
2023-05-25T01:54:30.325Z,14.50
2023-05-25T01:57:01.471Z,14.50
2023-05-25T01:59:30.977Z,14.50
2023-05-25T02:02:00.638Z,14.50
2023-05-25T02:04:29.419Z,14.50
2023-05-25T02:06:59.169Z,14.50
2023-05-25T02:09:27.526Z,14.50
2023-05-25T02:11:55.866Z,14.50
2023-05-25T02:14:24.323Z,14.50
2023-05-25T02:16:52.614Z,14.50
2023-05-25T02:19:21.074Z,14.50
2023-05-25T02:21:49.478Z,14.40
2023-05-25T02:24:19.422Z,14.50
2023-05-25T02:26:47.704Z,14.50
2023-05-25T02:29:16.331Z,14.50
2023-05-25T02:31:44.793Z,14.50
2023-05-25T02:34:13.943Z,14.50
2023-05-25T02:36:43.558Z,14.50
2023-05-25T02:39:12.203Z,14.50
2023-05-25T02:41:41.980Z,14.50
2023-05-25T02:44:10.373Z,14.50
2023-05-25T02:46:38.733Z,14.50
2023-05-25T02:49:07.819Z,14.50
2023-05-25T02:51:37.493Z,14.50
2023-05-25T02:54:06.957Z,14.40
2023-05-25T02:56:35.928Z,14.50
2023-05-25T02:59:07.749Z,14.50
2023-05-25T03:01:36.590Z,14.50
2023-05-25T03:04:05.060Z,14.50
2023-05-25T03:06:38.112Z,14.50
2023-05-25T03:09:16.408Z,14.50
2023-05-25T03:11:46.614Z,14.50
2023-05-25T03:14:19.565Z,14.50
2023-05-25T03:16:56.614Z,14.50
2023-05-25T03:19:25.939Z,14.50
2023-05-25T03:21:54.296Z,14.50
2023-05-25T03:24:22.667Z,14.50
2023-05-25T03:26:51.216Z,14.60
2023-05-25T03:29:21.066Z,14.60
2023-05-25T03:31:49.429Z,14.70
2023-05-25T03:34:19.461Z,14.70
2023-05-25T03:36:47.761Z,14.80
2023-05-25T03:39:18.453Z,14.90
2023-05-25T03:41:46.789Z,15.00
2023-05-25T03:44:15.661Z,15.10
2023-05-25T03:46:46.612Z,15.20
2023-05-25T03:49:15.139Z,15.50
2023-05-25T03:51:43.671Z,15.50
2023-05-25T03:54:13.682Z,15.60
2023-05-25T03:59:25.697Z,15.80
2023-05-25T04:01:55.439Z,16.00
2023-05-25T04:04:23.880Z,16.10
2023-05-25T04:06:52.241Z,16.20
2023-05-25T04:09:20.596Z,16.30
2023-05-25T04:11:50.917Z,16.30
2023-05-25T04:14:20.919Z,16.30
2023-05-25T04:16:49.898Z,16.30
2023-05-25T04:19:20.228Z,16.30
2023-05-25T04:21:49.715Z,16.40
2023-05-25T04:24:18.118Z,16.50
2023-05-25T04:26:47.147Z,16.50
2023-05-25T04:29:15.914Z,16.50
2023-05-25T04:32:09.684Z,16.50
2023-05-25T04:34:56.536Z,16.60
2023-05-25T04:37:29.203Z,16.70
2023-05-25T04:40:00.410Z,16.80
2023-05-25T04:42:29.902Z,17.00
2023-05-25T04:44:59.143Z,17.20
2023-05-25T04:47:27.555Z,17.40
2023-05-25T04:49:57.993Z,17.50
2023-05-25T04:52:26.425Z,17.60
2023-05-25T04:54:55.733Z,17.60
2023-05-25T04:57:24.101Z,17.70
2023-05-25T04:59:52.994Z,17.80
2023-05-25T05:02:21.425Z,17.80
2023-05-25T05:04:52.680Z,17.90
2023-05-25T05:07:23.346Z,18.00
2023-05-25T05:09:51.808Z,18.00
2023-05-25T05:12:20.194Z,18.10
2023-05-25T05:14:52.179Z,18.10
2023-05-25T05:17:21.555Z,18.10
2023-05-25T05:19:51.571Z,18.20
2023-05-25T05:22:19.984Z,18.20
2023-05-25T05:24:49.904Z,18.30
2023-05-25T05:27:24.030Z,18.40
2023-05-25T05:29:58.130Z,18.50
2023-05-25T05:32:26.872Z,18.60
2023-05-25T05:34:56.684Z,18.70
2023-05-25T06:10:23.735Z,19.30
2023-05-25T06:12:53.724Z,19.50
2023-05-25T06:22:53.894Z,19.90
2023-05-25T06:25:24.028Z,19.90
2023-05-25T06:27:52.703Z,19.90
2023-05-25T06:30:22.152Z,20.00
2023-05-25T06:32:50.657Z,20.10
2023-05-25T06:35:21.183Z,20.10
2023-05-25T06:37:52.321Z,20.10
2023-05-25T06:40:21.627Z,20.10
2023-05-25T06:42:51.326Z,20.10
2023-05-25T06:45:55.230Z,20.10
2023-05-25T06:48:23.841Z,20.30
2023-05-25T06:50:52.205Z,20.30
2023-05-25T06:53:20.558Z,20.30
2023-05-25T06:55:49.451Z,20.30
2023-05-25T06:58:19.198Z,20.30
2023-05-25T07:00:47.496Z,20.30
2023-05-25T07:03:16.836Z,20.30
2023-05-25T07:05:45.494Z,20.30
2023-05-25T07:08:14.084Z,20.40
2023-05-25T07:10:42.503Z,20.50
2023-05-25T07:13:11.159Z,20.70
2023-05-25T07:15:40.952Z,20.80
2023-05-25T07:18:12.713Z,21.00
2023-05-25T07:20:42.455Z,21.10
2023-05-25T07:25:43.053Z,21.50
2023-05-25T07:28:11.503Z,21.60
2023-05-25T07:30:41.243Z,21.70
2023-05-25T07:33:09.650Z,21.70
2023-05-25T07:35:37.962Z,21.80
2023-05-25T07:38:06.423Z,21.90
2023-05-25T07:40:34.743Z,22.00
2023-05-25T07:43:03.051Z,22.10
2023-05-25T07:45:31.423Z,22.20
2023-05-25T07:48:01.146Z,22.20
2023-05-25T07:50:31.588Z,22.20
2023-05-25T07:53:00.715Z,22.20
2023-05-25T07:55:28.998Z,22.30
2023-05-25T07:57:57.334Z,22.20
2023-05-25T08:00:25.795Z,22.10
2023-05-25T08:02:54.267Z,22.10
2023-05-25T08:05:24.107Z,22.20
2023-05-25T08:07:52.462Z,22.20
2023-05-25T08:10:21.099Z,22.20
2023-05-25T08:12:51.219Z,22.30
2023-05-25T08:15:20.851Z,22.20
2023-05-25T08:17:50.994Z,22.20
2023-05-25T08:20:19.993Z,22.20
2023-05-25T08:22:50.031Z,22.20
2023-05-25T08:25:20.834Z,22.20
2023-05-25T08:27:49.201Z,22.20
2023-05-25T08:30:17.559Z,22.20
2023-05-25T08:32:46.472Z,22.20
2023-05-25T08:35:15.205Z,22.20
2023-05-25T08:37:43.687Z,22.20
2023-05-25T08:40:16.139Z,22.20
2023-05-25T08:42:44.814Z,22.30
2023-05-25T08:45:26.378Z,22.40
2023-05-25T08:50:32.646Z,22.70
2023-05-25T08:53:03.786Z,22.90
2023-05-25T08:55:36.613Z,23.20
2023-05-25T08:58:10.507Z,22.70
2023-05-25T09:00:43.283Z,22.60
2023-05-25T09:03:13.400Z,22.50
2023-05-25T09:05:41.957Z,22.40
2023-05-25T09:08:10.566Z,22.50
2023-05-25T09:10:40.555Z,22.40
2023-05-25T09:13:21.243Z,22.50
2023-05-25T09:20:50.534Z,23.10
2023-05-25T09:23:19.092Z,23.10
2023-05-25T09:25:50.840Z,23.30
2023-05-25T09:28:26.975Z,23.50
2023-05-25T09:30:56.112Z,23.60
2023-05-25T09:33:26.505Z,23.50
2023-05-25T09:35:55.618Z,23.50
2023-05-25T09:38:24.022Z,23.30
2023-05-25T09:40:53.996Z,23.30
2023-05-25T09:43:39.171Z,23.40
2023-05-25T09:46:10.079Z,23.40
2023-05-25T09:48:38.739Z,23.50
2023-05-25T09:51:08.345Z,23.50
2023-05-25T09:53:36.922Z,23.60
2023-05-25T09:56:06.999Z,23.60
2023-05-25T09:58:35.516Z,23.60
2023-05-25T10:01:04.721Z,23.60
2023-05-25T10:03:33.320Z,23.80
2023-05-25T10:06:02.380Z,24.00
2023-05-25T10:08:31.006Z,24.10
2023-05-25T10:10:59.753Z,24.00
2023-05-25T10:13:31.644Z,23.90
2023-05-25T10:16:00.915Z,23.90
2023-05-25T10:18:30.147Z,24.10
2023-05-25T10:21:01.541Z,24.30
2023-05-25T10:23:34.249Z,24.50
2023-05-25T10:26:04.703Z,24.70
2023-05-25T10:28:38.003Z,24.90
2023-05-25T10:31:07.060Z,24.60
2023-05-25T10:33:35.420Z,24.30
2023-05-25T10:36:10.804Z,24.10
2023-05-25T10:38:41.095Z,23.90
2023-05-25T10:41:11.179Z,23.70
2023-05-25T10:43:41.453Z,23.50
2023-05-25T10:46:09.942Z,23.50
2023-05-25T10:48:38.802Z,23.30
2023-05-25T10:58:42.337Z,23.10
2023-05-25T11:01:12.914Z,23.00
2023-05-25T11:03:56.009Z,22.90
2023-05-25T11:06:24.964Z,22.90
2023-05-25T11:08:55.287Z,22.90
2023-05-25T11:11:23.733Z,23.00
2023-05-25T11:13:52.049Z,23.00
2023-05-25T11:16:25.560Z,23.10
2023-05-25T11:18:54.956Z,23.20
2023-05-25T11:21:24.499Z,23.30
2023-05-25T11:23:57.170Z,23.40
2023-05-25T11:26:26.304Z,23.40
2023-05-25T11:28:54.868Z,23.40
2023-05-25T11:31:32.365Z,23.50
2023-05-25T11:34:02.452Z,23.60
2023-05-25T11:36:31.748Z,23.60
2023-05-25T11:39:04.661Z,23.70
2023-05-25T11:41:37.819Z,23.80
2023-05-25T11:44:07.044Z,23.90
2023-05-25T11:46:38.946Z,24.00
2023-05-25T11:49:07.749Z,24.00
2023-05-25T11:51:36.422Z,24.00
2023-05-25T11:54:04.813Z,23.80
2023-05-25T11:56:35.994Z,23.70
2023-05-25T11:59:08.780Z,23.50
2023-05-25T12:01:38.528Z,23.40
2023-05-25T12:04:09.699Z,23.50
2023-05-25T12:06:38.163Z,23.50
2023-05-25T12:09:11.917Z,23.50
2023-05-25T12:11:40.322Z,23.60
2023-05-25T12:14:08.904Z,23.70
2023-05-25T12:16:40.816Z,23.70
2023-05-25T12:19:10.975Z,23.70
2023-05-25T12:21:39.901Z,23.70
2023-05-25T12:24:08.670Z,23.60
2023-05-25T12:26:37.168Z,23.50
2023-05-25T12:29:06.117Z,23.40
2023-05-25T12:31:35.312Z,23.40
2023-05-25T12:34:06.115Z,23.50
2023-05-25T12:36:44.996Z,23.40
2023-05-25T12:39:13.914Z,23.20
2023-05-25T12:41:45.967Z,23.10
2023-05-25T12:44:24.496Z,23.00
2023-05-25T12:46:53.758Z,22.90
2023-05-25T12:49:33.584Z,22.70
2023-05-25T12:52:03.134Z,22.60
2023-05-25T12:54:49.884Z,22.50
2023-05-25T12:57:18.905Z,22.50
2023-05-25T12:59:48.036Z,22.50
2023-05-25T13:02:16.400Z,22.50
2023-05-25T13:12:13.047Z,22.20
2023-05-25T13:14:41.462Z,22.00
2023-05-25T13:17:09.761Z,21.90
2023-05-25T13:19:38.627Z,21.90
2023-05-25T13:22:07.617Z,21.80
2023-05-25T13:24:36.297Z,21.80
2023-05-25T13:27:04.943Z,21.80
2023-05-25T13:29:34.672Z,21.90
2023-05-25T13:32:03.174Z,22.00
2023-05-25T13:34:31.545Z,22.00
2023-05-25T13:37:00.428Z,22.10
2023-05-25T13:39:28.816Z,22.00
2023-05-25T13:41:57.562Z,21.90
2023-05-25T13:44:25.856Z,21.90
2023-05-25T13:46:56.168Z,21.80
2023-05-25T13:49:26.352Z,21.80
2023-05-25T13:51:54.865Z,21.60
2023-05-25T13:54:23.737Z,21.40
2023-05-25T13:56:52.106Z,21.30
2023-05-25T13:59:20.381Z,21.30
2023-05-25T14:01:48.779Z,21.30
2023-05-25T14:04:18.665Z,21.10
2023-05-25T14:06:50.165Z,20.80
2023-05-25T14:09:18.504Z,20.70
2023-05-25T14:11:47.366Z,20.60
2023-05-25T14:14:29.995Z,20.50
2023-05-25T14:17:00.518Z,20.10
2023-05-25T14:19:30.502Z,19.90
2023-05-25T14:22:12.527Z,19.70
2023-05-25T14:24:42.613Z,19.50
2023-05-25T14:27:10.965Z,19.50
2023-05-25T14:29:39.423Z,19.40
2023-05-25T14:32:07.774Z,19.30
2023-05-25T14:34:37.569Z,19.20
2023-05-25T14:37:06.013Z,19.10
2023-05-25T14:39:34.444Z,19.10
2023-05-25T14:42:02.940Z,19.20
2023-05-25T14:44:31.397Z,19.40
2023-05-25T14:46:59.746Z,19.50
2023-05-25T14:49:28.462Z,19.60
2023-05-25T14:51:58.209Z,19.60
2023-05-25T14:54:26.585Z,19.90
2023-05-25T14:56:55.003Z,20.00
2023-05-25T14:59:23.339Z,20.20
2023-05-25T15:01:51.780Z,20.30
2023-05-25T15:04:20.331Z,20.30
2023-05-25T15:06:48.724Z,20.30
2023-05-25T15:09:19.500Z,20.20
2023-05-25T15:11:48.197Z,20.00
2023-05-25T15:14:17.008Z,19.80
2023-05-25T15:16:46.016Z,19.60
2023-05-25T15:26:46.671Z,19.10
2023-05-25T22:07:28.625Z,14.30
2023-05-25T22:12:27.687Z,14.20
2023-05-25T22:14:55.975Z,14.50
2023-05-25T22:17:24.395Z,14.50
2023-05-25T22:20:06.674Z,14.40
2023-05-25T22:22:38.626Z,14.40
2023-05-25T22:25:09.954Z,14.50
2023-05-25T22:27:38.374Z,14.30
2023-05-25T22:30:07.763Z,14.30
2023-05-25T23:04:50.213Z,13.50
2023-05-25T23:07:18.546Z,13.50
2023-05-25T23:09:46.908Z,13.50
2023-05-25T23:12:15.260Z,13.50
2023-05-25T23:14:44.624Z,13.40
2023-05-25T23:17:12.941Z,13.30
2023-05-25T23:19:41.456Z,13.30
2023-05-25T23:22:11.150Z,13.40
2023-05-25T23:24:40.506Z,13.40
2023-05-25T23:27:09.011Z,13.40
2023-05-25T23:29:37.338Z,13.40
2023-05-25T23:32:05.930Z,13.40
2023-05-25T23:34:34.248Z,13.40
2023-05-25T23:37:03.717Z,13.30
2023-05-25T23:39:34.708Z,13.30
2023-05-25T23:42:03.526Z,13.20
2023-05-25T23:44:31.972Z,13.20
2023-05-25T23:47:00.666Z,13.10
2023-05-25T23:49:28.962Z,13.10
2023-05-25T23:51:57.297Z,13.00
2023-05-25T23:54:25.600Z,13.00
2023-05-25T23:56:55.284Z,12.90
2023-05-25T23:59:23.670Z,12.90
